Time;durP1;ratioP1;P1;durP2;ratioP2;P2;SDS_P1;SDS_P2;PMS_P1;PMS_P2;Temp;Humidity;BMP_temperature;BMP_pressure;BME280_temperature;BME280_humidity;BME280_pressure;Samples;Min_cycle;Max_cycle;Signal;HPM_P1;HPM_P2
2022/06/19 00:00:42;;;;;;;4.00;3.70;;;;;;;24.08;42.66;95521.13;6095949;28;103720;-56
2022/06/19 00:03:48;;;;;;;3.97;3.77;;;;;;;24.06;42.75;95520.66;6111538;28;104993;-56
2022/06/19 00:06:56;;;;;;;5.40;5.00;;;;;;;24.04;42.63;95525.53;6112102;28;103584;-56
2022/06/19 00:09:59;;;;;;;5.10;4.70;;;;;;;24.00;42.76;95519.19;6103078;28;103693;-56
2022/06/19 00:13:02;;;;;;;4.37;4.07;;;;;;;24.01;42.91;95521.56;6115203;28;103575;-56
2022/06/19 00:16:06;;;;;;;4.33;3.97;;;;;;;23.99;42.72;95514.91;6110327;28;104413;-56
2022/06/19 00:19:09;;;;;;;3.80;3.60;;;;;;;23.98;42.49;95521.34;6105305;28;104931;-57
2022/06/19 00:22:14;;;;;;;4.97;4.67;;;;;;;23.97;42.51;95511.75;6100511;28;104864;-54
2022/06/19 00:25:17;;;;;;;6.30;5.77;;;;;;;23.97;42.85;95515.22;6111455;28;104130;-56
2022/06/19 00:28:20;;;;;;;6.90;6.40;;;;;;;23.97;43.06;95517.88;6125672;28;103263;-54
2022/06/19 00:31:23;;;;;;;4.43;4.13;;;;;;;23.96;42.78;95516.31;6087697;28;103929;-55
2022/06/19 00:34:27;;;;;;;4.63;4.23;;;;;;;23.97;42.64;95517.09;6096335;28;103741;-55
2022/06/19 00:37:33;;;;;;;4.40;4.10;;;;;;;23.94;42.65;95507.03;6122893;28;103895;-55
2022/06/19 00:40:37;;;;;;;4.10;3.90;;;;;;;23.93;43.10;95514.25;6105590;28;103789;-55
2022/06/19 00:44:00;;;;;;;4.13;3.90;;;;;;;23.95;42.67;95517.41;6110734;28;103666;-55
2022/06/19 00:47:09;;;;;;;3.67;3.37;;;;;;;23.96;42.56;95510.97;6103225;28;104802;-55
2022/06/19 00:50:24;;;;;;;4.50;4.20;;;;;;;23.97;42.41;95511.75;6101663;28;104624;-55
2022/06/19 00:53:35;;;;;;;3.80;3.50;;;;;;;23.92;42.47;95520.69;6097886;28;103887;-55
2022/06/19 00:56:39;;;;;;;3.90;3.50;;;;;;;23.85;42.55;95520.31;6101701;28;104978;-55
2022/06/19 00:59:45;;;;;;;3.87;3.57;;;;;;;23.81;42.25;95524.72;6110881;28;103933;-55
2022/06/19 01:02:48;;;;;;;3.97;3.63;;;;;;;23.87;42.78;95516.28;6111713;28;103689;-55
2022/06/19 01:05:53;;;;;;;5.30;3.50;;;;;;;23.81;42.34;95520.16;6117678;28;104366;-55
2022/06/19 01:08:58;;;;;;;3.70;3.50;;;;;;;23.88;42.35;95515.19;6101613;28;103872;-54
2022/06/19 01:12:03;;;;;;;3.50;3.30;;;;;;;23.84;42.26;95519.53;6111822;28;103659;-55
2022/06/19 01:15:10;;;;;;;3.60;3.30;;;;;;;23.82;42.52;95519.06;6110451;28;104304;-55
2022/06/19 01:18:14;;;;;;;3.30;3.00;;;;;;;23.78;42.48;95520.75;6106983;28;103861;-54
2022/06/19 01:21:25;;;;;;;3.73;3.53;;;;;;;23.80;42.37;95517.78;6104989;28;103698;-55
2022/06/19 01:24:39;;;;;;;3.57;3.37;;;;;;;23.77;42.43;95519.19;6109851;28;103690;-55
2022/06/19 01:31:20;;;;;;;3.50;3.20;;;;;;;23.77;42.28;95516.50;6082662;28;103861;-55
2022/06/19 01:34:32;;;;;;;3.37;3.17;;;;;;;23.78;42.13;95512.75;6139612;28;104875;-54
2022/06/19 01:37:37;;;;;;;4.77;3.30;;;;;;;23.78;42.39;95510.06;6127014;28;103613;-54
2022/06/19 01:40:43;;;;;;;4.03;3.77;;;;;;;23.74;42.02;95506.44;6118131;28;103871;-54
2022/06/19 01:43:48;;;;;;;3.73;3.40;;;;;;;23.71;42.42;95509.72;6130056;28;103864;-55
2022/06/19 01:46:51;;;;;;;4.20;3.80;;;;;;;23.67;42.02;95508.72;6116904;28;103911;-54
2022/06/19 01:49:56;;;;;;;3.53;3.30;;;;;;;23.71;42.35;95511.63;6115704;28;104581;-56
2022/06/19 01:53:06;;;;;;;3.60;3.40;;;;;;;23.66;42.32;95506.38;6103893;28;104993;-54
2022/06/19 01:56:11;;;;;;;3.57;3.37;;;;;;;23.73;42.55;95509.41;6114856;28;103688;-57
2022/06/19 01:59:16;;;;;;;3.17;2.97;;;;;;;23.71;42.20;95508.94;6113825;28;103936;-53
2022/06/19 02:02:19;;;;;;;3.97;3.60;;;;;;;23.68;42.46;95510.31;6115243;28;104861;-53
2022/06/19 02:05:23;;;;;;;3.70;3.50;;;;;;;23.68;42.35;95515.66;6104387;28;103814;-54
2022/06/19 02:08:30;;;;;;;3.90;3.67;;;;;;;23.67;41.92;95518.63;6115435;28;103836;-54
2022/06/19 02:11:34;;;;;;;3.30;3.10;;;;;;;23.63;42.16;95518.47;6138801;28;103884;-53
2022/06/19 02:14:39;;;;;;;3.47;3.27;;;;;;;23.60;42.01;95521.75;6126927;28;103969;-54
2022/06/19 02:17:49;;;;;;;3.80;3.60;;;;;;;23.60;41.79;95530.53;6103438;28;103881;-54
2022/06/19 02:20:53;;;;;;;4.80;3.90;;;;;;;23.64;42.19;95529.94;6114778;28;103735;-54
2022/06/19 02:23:56;;;;;;;3.90;3.30;;;;;;;23.59;41.96;95523.63;6118771;28;103966;-54
2022/06/19 02:27:01;;;;;;;3.17;2.90;;;;;;;23.59;42.32;95528.19;6130737;28;103865;-54
2022/06/19 02:30:10;;;;;;;3.27;3.00;;;;;;;23.59;41.97;95523.63;6125860;28;104966;-54
2022/06/19 02:33:17;;;;;;;3.23;2.80;;;;;;;23.58;42.20;95526.59;6119138;28;103888;-54
2022/06/19 02:36:39;;;;;;;3.33;3.10;;;;;;;23.60;41.80;95535.09;6114781;28;104593;-54
2022/06/19 02:39:46;;;;;;;3.20;3.00;;;;;;;23.56;42.10;95539.47;6102747;28;103759;-54
2022/06/19 02:42:50;;;;;;;3.30;3.00;;;;;;;23.51;41.87;95526.22;6114935;28;104683;-54
2022/06/19 02:45:55;;;;;;;3.20;2.80;;;;;;;23.53;42.01;95527.53;6113247;28;104855;-53
2022/06/19 02:48:58;;;;;;;3.33;3.10;;;;;;;23.52;41.72;95536.63;6112990;28;104779;-53
2022/06/19 02:52:02;;;;;;;3.77;3.50;;;;;;;23.54;41.78;95534.44;6107226;28;106221;-54
2022/06/19 02:55:06;;;;;;;4.20;3.90;;;;;;;23.50;41.98;95540.66;6113415;28;103900;-54
2022/06/19 02:58:10;;;;;;;3.70;3.30;;;;;;;23.67;41.75;95538.13;6114429;28;104034;-55
2022/06/19 03:01:15;;;;;;;3.43;3.13;;;;;;;23.74;41.95;95535.03;6109166;28;103977;-54
2022/06/19 03:04:23;;;;;;;3.33;3.13;;;;;;;23.76;41.80;95538.19;6138190;28;103154;-53
2022/06/19 03:07:29;;;;;;;3.67;3.47;;;;;;;23.76;41.59;95547.00;6138794;28;104995;-54
2022/06/19 03:10:32;;;;;;;3.17;2.63;;;;;;;23.78;41.77;95552.03;6137851;28;103473;-54
2022/06/19 03:13:35;;;;;;;3.20;2.87;;;;;;;23.79;42.09;95556.28;6120471;28;103969;-54
2022/06/19 03:16:40;;;;;;;3.70;3.50;;;;;;;23.81;41.67;95556.78;6130418;28;104897;-53
2022/06/19 03:19:43;;;;;;;4.70;4.07;;;;;;;23.76;41.60;95551.56;6130957;28;104708;-54
2022/06/19 03:22:47;;;;;;;3.60;3.30;;;;;;;23.76;41.87;95559.59;6113350;28;103850;-53
2022/06/19 03:25:50;;;;;;;3.23;3.03;;;;;;;23.76;41.66;95554.25;6102715;28;103693;-54
2022/06/19 03:28:54;;;;;;;3.90;3.70;;;;;;;23.75;41.50;95558.78;6121189;28;104078;-54
2022/06/19 03:31:58;;;;;;;4.37;4.07;;;;;;;23.74;41.69;95562.56;6125766;28;103818;-54
2022/06/19 03:35:01;;;;;;;3.50;3.20;;;;;;;23.75;41.98;95566.03;6129090;28;103699;-53
2022/06/19 03:38:05;;;;;;;3.57;3.37;;;;;;;23.68;41.57;95569.09;6118441;28;103277;-54
2022/06/19 03:41:08;;;;;;;3.37;3.17;;;;;;;23.45;41.80;95560.28;6114596;28;104963;-55
2022/06/19 03:44:11;;;;;;;3.53;3.33;;;;;;;23.22;42.28;95563.97;6112449;28;104129;-55
2022/06/19 03:47:22;;;;;;;3.80;3.50;;;;;;;23.22;42.61;95556.75;6122212;28;105082;-54
2022/06/19 03:50:26;;;;;;;4.00;3.73;;;;;;;23.26;42.75;95559.59;6137745;28;105168;-54
2022/06/19 03:53:29;;;;;;;3.80;3.50;;;;;;;23.34;42.76;95550.13;6135131;28;103893;-55
2022/06/19 03:56:33;;;;;;;3.70;3.50;;;;;;;23.35;42.54;95549.81;6136444;28;103964;-54
2022/06/19 03:59:36;;;;;;;3.60;3.30;;;;;;;23.32;42.70;95545.06;6107513;28;102949;-54
2022/06/19 04:02:41;;;;;;;4.07;3.77;;;;;;;23.37;42.51;95554.88;6131696;28;103755;-53
2022/06/19 04:05:44;;;;;;;4.03;3.73;;;;;;;23.39;42.39;95552.69;6136911;28;104685;-54
2022/06/19 04:08:48;;;;;;;4.67;3.67;;;;;;;23.36;42.80;95550.63;6106598;28;103748;-54
2022/06/19 04:11:51;;;;;;;4.93;4.53;;;;;;;23.40;43.16;95552.38;6110159;28;103910;-54
2022/06/19 04:14:55;;;;;;;5.97;4.60;;;;;;;23.40;43.10;95564.97;6114841;28;103893;-54
2022/06/19 04:17:59;;;;;;;5.20;4.80;;;;;;;23.43;43.34;95561.69;6112500;28;104980;-53
2022/06/19 04:21:04;;;;;;;5.70;5.17;;;;;;;23.40;43.19;95551.59;6101708;28;104914;-54
2022/06/19 04:24:07;;;;;;;5.67;5.17;;;;;;;23.42;43.58;95557.44;6111868;28;104647;-53
2022/06/19 04:27:10;;;;;;;7.60;6.40;;;;;;;23.48;43.58;95554.31;6111366;28;103051;-53
2022/06/19 04:30:14;;;;;;;6.60;6.10;;;;;;;23.49;43.54;95555.91;6110576;28;104979;-53
2022/06/19 04:33:20;;;;;;;6.97;6.37;;;;;;;23.47;43.52;95552.75;6102178;28;103772;-52
2022/06/19 04:36:25;;;;;;;7.00;6.40;;;;;;;23.46;43.59;95555.72;6111146;28;103660;-53
2022/06/19 04:39:28;;;;;;;6.90;6.30;;;;;;;23.49;43.71;95553.22;6111560;28;103637;-53
2022/06/19 04:42:31;;;;;;;7.40;6.70;;;;;;;23.54;43.43;95550.47;6126279;28;106164;-52
2022/06/19 04:45:35;;;;;;;8.87;8.13;;;;;;;23.61;42.98;95560.72;6104747;28;104565;-53
2022/06/19 04:48:40;;;;;;;9.13;8.23;;;;;;;23.59;43.65;95563.69;6111600;28;103737;-53
2022/06/19 04:51:43;;;;;;;9.40;8.60;;;;;;;23.62;43.70;95564.97;6110979;28;103671;-53
2022/06/19 04:54:47;;;;;;;10.63;9.60;;;;;;;23.64;43.41;95557.44;6103940;28;104227;-57
2022/06/19 04:57:50;;;;;;;10.00;9.03;;;;;;;23.68;43.50;95570.97;6122944;28;104047;-54
2022/06/19 05:00:54;;;;;;;8.77;8.00;;;;;;;23.66;43.54;95565.94;6109659;28;105497;-54
2022/06/19 05:04:00;;;;;;;7.23;6.63;;;;;;;23.68;43.67;95571.78;6110919;28;103952;-54
2022/06/19 05:07:04;;;;;;;6.90;6.20;;;;;;;23.65;43.49;95571.59;6100719;28;104760;-54
2022/06/19 05:10:09;;;;;;;6.70;6.20;;;;;;;23.66;43.81;95576.63;6112804;28;103678;-54
2022/06/19 05:13:16;;;;;;;6.33;5.90;;;;;;;23.66;44.07;95578.50;6123026;28;105372;-54
2022/06/19 05:16:21;;;;;;;7.37;6.77;;;;;;;23.51;44.84;95569.75;6111047;28;104025;-54
2022/06/19 05:19:26;;;;;;;7.93;7.30;;;;;;;23.43;45.33;95567.81;6100933;28;103490;-54
2022/06/19 05:22:30;;;;;;;6.87;6.30;;;;;;;23.42;45.04;95576.13;6110408;28;103830;-55
2022/06/19 05:25:34;;;;;;;6.80;6.20;;;;;;;23.42;45.22;95579.59;6111317;28;103752;-55
2022/06/19 05:28:37;;;;;;;6.90;6.20;;;;;;;23.35;45.34;95575.72;6098860;28;103920;-54
2022/06/19 05:31:40;;;;;;;6.43;5.80;;;;;;;23.43;45.09;95578.50;6110747;28;103863;-54
2022/06/19 05:34:45;;;;;;;6.30;5.90;;;;;;;23.55;44.95;95580.66;6110877;28;103706;-53
2022/06/19 05:37:50;;;;;;;7.40;6.70;;;;;;;23.49;45.45;95581.81;6110566;28;103957;-55
2022/06/19 05:40:55;;;;;;;8.07;6.20;;;;;;;23.57;45.30;95576.56;6114435;28;104021;-54
2022/06/19 05:43:58;;;;;;;6.03;5.63;;;;;;;23.52;45.52;95586.56;6111104;28;105266;-54
2022/06/19 05:47:01;;;;;;;6.67;6.13;;;;;;;23.58;45.81;95580.03;6111904;28;103697;-54
2022/06/19 05:50:07;;;;;;;5.53;5.13;;;;;;;23.77;44.92;95586.00;6111098;28;104017;-55
2022/06/19 05:53:10;;;;;;;4.53;4.23;;;;;;;23.94;44.69;95576.53;6100637;28;103769;-54
2022/06/19 05:56:14;;;;;;;5.33;4.83;;;;;;;24.07;44.57;95571.16;6111519;28;103875;-54
2022/06/19 05:59:17;;;;;;;6.10;5.00;;;;;;;24.16;44.61;95576.53;6114593;28;103607;-54
2022/06/19 06:02:23;;;;;;;4.97;4.67;;;;;;;24.22;44.50;95574.53;6104978;28;103969;-54
2022/06/19 06:05:27;;;;;;;5.90;5.60;;;;;;;23.98;45.80;95585.50;6104248;28;103359;-54
2022/06/19 06:08:31;;;;;;;6.20;5.80;;;;;;;23.96;46.10;95585.81;6110935;28;104791;-55
2022/06/19 06:11:34;;;;;;;5.83;5.53;;;;;;;23.49;47.23;95574.59;6107859;28;103736;-55
2022/06/19 06:14:38;;;;;;;6.50;6.00;;;;;;;23.59;47.65;95577.06;6087492;28;103918;-54
2022/06/19 06:17:41;;;;;;;6.77;6.27;;;;;;;23.30;47.74;95573.97;6127260;28;103983;-54
2022/06/19 06:20:45;;;;;;;5.47;5.07;;;;;;;23.65;47.37;95584.94;6103997;28;104895;-53
2022/06/19 06:23:48;;;;;;;5.17;4.87;;;;;;;23.97;46.71;95571.34;6103917;28;103965;-56
2022/06/19 06:26:52;;;;;;;6.27;5.60;;;;;;;24.18;46.33;95577.03;6096020;28;103731;-55
2022/06/19 06:29:55;;;;;;;6.63;6.13;;;;;;;24.26;46.61;95581.63;6104465;28;104632;-55
2022/06/19 06:32:58;;;;;;;6.53;6.03;;;;;;;24.34;46.53;95574.75;6118467;28;103723;-54
2022/06/19 06:36:02;;;;;;;6.23;5.73;;;;;;;24.34;47.39;95578.22;6102660;28;103482;-54
2022/06/19 06:39:05;;;;;;;8.70;5.37;;;;;;;24.42;47.35;95576.69;6113022;28;104538;-53
2022/06/19 06:42:09;;;;;;;5.80;4.93;;;;;;;24.49;47.47;95572.47;6116350;28;104342;-53
2022/06/19 06:45:14;;;;;;;7.13;5.30;;;;;;;24.52;47.24;95564.91;6113084;28;103380;-53
2022/06/19 06:48:17;;;;;;;7.30;5.60;;;;;;;24.39;47.77;95572.75;6097461;28;103558;-56
2022/06/19 06:51:25;;;;;;;5.73;5.30;;;;;;;24.24;47.68;95569.69;6100336;28;104481;-54
2022/06/19 06:54:28;;;;;;;6.80;4.53;;;;;;;24.34;47.07;95564.03;6107552;28;103705;-53
2022/06/19 06:57:31;;;;;;;8.00;4.60;;;;;;;24.38;47.55;95560.47;6107241;28;103855;-53
2022/06/19 07:00:35;;;;;;;5.43;4.93;;;;;;;24.55;46.53;95558.97;6094103;28;105079;-53
2022/06/19 07:03:38;;;;;;;5.23;4.60;;;;;;;24.57;45.88;95556.78;6108658;28;105012;-54
2022/06/19 07:06:43;;;;;;;4.60;4.20;;;;;;;24.65;45.32;95551.44;6114573;28;104447;-55
2022/06/19 07:09:46;;;;;;;3.70;3.40;;;;;;;24.71;44.36;95549.47;6107857;28;103853;-54
2022/06/19 07:12:50;;;;;;;4.53;3.80;;;;;;;24.78;44.03;95550.56;6105887;28;107429;-52
2022/06/19 07:15:53;;;;;;;5.53;3.80;;;;;;;24.77;43.88;95549.00;6111400;28;103870;-54
2022/06/19 07:18:56;;;;;;;4.03;3.33;;;;;;;24.77;43.26;95542.84;6118223;28;103798;-54
2022/06/19 07:22:00;;;;;;;3.60;3.30;;;;;;;24.78;42.62;95541.75;6096842;28;105133;-53
2022/06/19 07:25:04;;;;;;;4.43;4.03;;;;;;;24.84;42.95;95540.50;6087248;28;103712;-53
2022/06/19 07:28:08;;;;;;;3.47;3.17;;;;;;;24.85;43.24;95530.59;6104825;28;104919;-53
2022/06/19 07:31:11;;;;;;;3.83;3.53;;;;;;;24.95;43.30;95536.44;6093953;28;103906;-54
2022/06/19 07:34:15;;;;;;;5.80;3.33;;;;;;;24.98;43.84;95529.69;6084886;28;103739;-52
2022/06/19 07:37:26;;;;;;;4.83;3.33;;;;;;;25.01;43.77;95532.50;6107457;28;103738;-52
2022/06/19 07:40:30;;;;;;;4.30;3.97;;;;;;;24.98;43.54;95538.50;6104106;28;103872;-52
2022/06/19 07:43:33;;;;;;;4.23;3.13;;;;;;;25.02;41.61;95527.94;6104663;28;107166;-54
2022/06/19 07:50:09;;;;;;;3.40;3.03;;;;;;;25.06;41.12;95529.72;6092807;28;103866;-51
2022/06/19 07:50:11;;;;;;;3.33;3.03;;;;;;;25.08;40.36;95524.81;6103496;28;103920;-52
2022/06/19 07:53:15;;;;;;;2.70;2.50;;;;;;;25.09;39.68;95526.41;6093483;28;103638;-53
2022/06/19 07:56:18;;;;;;;1.80;1.70;;;;;;;24.85;34.87;95523.34;6091739;28;103623;-51
2022/06/19 07:59:22;;;;;;;1.83;1.73;;;;;;;24.67;34.68;95532.41;6102487;28;103698;-53
2022/06/19 08:02:25;;;;;;;1.90;1.70;;;;;;;24.66;35.48;95533.50;6105630;28;103864;-53
2022/06/19 08:05:31;;;;;;;12.30;3.03;;;;;;;24.76;35.84;95528.69;6108327;28;103740;-51
2022/06/19 08:08:36;;;;;;;4.83;3.33;;;;;;;24.85;37.49;95525.22;6107368;28;103703;-53
2022/06/19 08:11:39;;;;;;;4.23;3.83;;;;;;;24.90;37.71;95527.78;6102891;28;104027;-54
2022/06/19 08:14:43;;;;;;;3.33;3.03;;;;;;;24.98;37.38;95527.78;6103648;28;103641;-53
2022/06/19 08:17:46;;;;;;;3.30;3.00;;;;;;;25.04;36.63;95526.56;6116828;28;104125;-53
2022/06/19 08:20:49;;;;;;;5.60;3.40;;;;;;;25.05;37.62;95520.09;6091319;28;103656;-53
2022/06/19 08:23:54;;;;;;;3.23;3.03;;;;;;;24.99;38.10;95515.97;6105559;28;103634;-54
2022/06/19 08:26:58;;;;;;;9.80;3.27;;;;;;;24.91;38.46;95518.66;6105959;28;104349;-53
2022/06/19 08:30:01;;;;;;;3.83;2.47;;;;;;;24.92;37.68;95517.53;6097034;28;103816;-53
2022/06/19 08:33:04;;;;;;;2.00;1.90;;;;;;;25.01;37.50;95521.81;6110822;28;105790;-55
2022/06/19 08:36:11;;;;;;;7.70;2.47;;;;;;;25.10;37.65;95519.16;6109723;28;103841;-55
2022/06/19 08:39:18;;;;;;;2.40;2.20;;;;;;;25.11;37.71;95512.69;6112096;28;103804;-58
2022/06/19 08:42:42;;;;;;;2.83;2.23;;;;;;;25.01;36.81;95510.31;6086135;28;103963;-57
2022/06/19 08:45:59;;;;;;;2.63;1.77;;;;;;;24.95;36.24;95498.19;6097435;28;104038;-55
2022/06/19 08:49:30;;;;;;;2.00;1.90;;;;;;;25.04;35.40;95501.66;6110884;28;106083;-56
2022/06/19 08:52:47;;;;;;;2.30;2.10;;;;;;;25.09;36.73;95478.19;6098103;28;103991;-57
2022/06/19 08:56:01;;;;;;;2.30;2.10;;;;;;;25.09;37.23;95496.16;6101312;28;105157;-56
2022/06/19 08:59:13;;;;;;;2.53;2.37;;;;;;;25.05;36.04;95492.53;6097497;28;104502;-57
2022/06/19 09:02:36;;;;;;;1.90;1.70;;;;;;;25.01;34.38;95492.34;6101870;28;106138;-57
2022/06/19 09:05:49;;;;;;;2.90;1.70;;;;;;;25.01;34.62;95486.19;6097064;28;104757;-51
2022/06/19 09:09:03;;;;;;;2.57;1.77;;;;;;;25.14;34.05;95500.56;6104371;28;103536;-50
2022/06/19 09:12:25;;;;;;;1.40;1.30;;;;;;;25.19;33.66;95493.16;6088710;28;104755;-51
2022/06/19 09:15:35;;;;;;;2.00;1.90;;;;;;;25.20;33.81;95489.38;6092918;28;103733;-51
2022/06/19 09:18:42;;;;;;;3.23;2.90;;;;;;;25.22;34.30;95489.06;6116959;28;104010;-49
2022/06/19 09:21:58;;;;;;;3.30;3.00;;;;;;;25.24;34.25;95484.19;6101298;28;103758;-50
2022/06/19 09:25:18;;;;;;;3.63;3.40;;;;;;;25.26;34.61;95480.09;6102003;28;104902;-50
2022/06/19 09:28:29;;;;;;;3.63;3.33;;;;;;;25.28;34.56;95469.06;6091077;28;103838;-51
2022/06/19 09:31:37;;;;;;;3.43;3.23;;;;;;;25.27;34.88;95476.31;6103526;28;103727;-51
2022/06/19 09:34:48;;;;;;;3.73;3.43;;;;;;;25.26;34.99;95472.06;6100038;28;104454;-51
2022/06/19 09:37:58;;;;;;;5.33;3.70;;;;;;;25.24;35.29;95470.78;6107280;28;103175;-49
2022/06/19 09:41:07;;;;;;;5.50;4.63;;;;;;;25.26;35.08;95466.69;6111204;28;105201;-50
2022/06/19 09:44:20;;;;;;;6.77;3.97;;;;;;;25.25;35.06;95458.97;6111966;28;103923;-53
2022/06/19 09:47:33;;;;;;;4.93;4.10;;;;;;;25.24;35.13;95460.88;6104929;28;104068;-51
2022/06/19 09:51:02;;;;;;;5.00;4.00;;;;;;;25.25;34.93;95459.75;6096207;28;106156;-50
2022/06/19 09:54:12;;;;;;;4.70;4.30;;;;;;;25.25;35.25;95457.09;6113737;28;104386;-51
2022/06/19 09:57:19;;;;;;;6.27;3.67;;;;;;;25.26;34.91;95461.34;6112180;28;103719;-51
2022/06/19 10:00:36;;;;;;;5.90;4.00;;;;;;;25.23;35.58;95453.94;6107982;28;103779;-50
2022/06/19 10:04:03;;;;;;;4.90;4.00;;;;;;;25.19;35.60;95458.31;6092219;28;103706;-50
2022/06/19 10:07:14;;;;;;;4.43;3.83;;;;;;;25.17;35.41;95451.72;6108466;28;103585;-51
2022/06/19 10:10:24;;;;;;;4.17;3.70;;;;;;;25.16;35.22;95455.50;6108882;28;103719;-51
2022/06/19 10:13:35;;;;;;;4.27;3.80;;;;;;;25.15;35.28;95437.84;6095208;28;104493;-51
2022/06/19 10:16:45;;;;;;;4.60;3.97;;;;;;;25.13;35.43;95442.75;6106842;28;104006;-51
2022/06/19 10:19:51;;;;;;;3.40;3.10;;;;;;;25.15;35.46;95444.00;6110320;28;104424;-50
2022/06/19 10:23:05;;;;;;;3.87;3.57;;;;;;;25.11;35.32;95440.38;6104971;28;103462;-49
2022/06/19 10:26:24;;;;;;;4.17;3.50;;;;;;;25.12;35.34;95441.16;6099217;28;104614;-50
2022/06/19 10:29:43;;;;;;;3.37;3.07;;;;;;;25.09;35.31;95435.34;6106098;28;103815;-50
2022/06/19 10:33:01;;;;;;;2.87;2.67;;;;;;;25.09;35.20;95432.66;6107272;28;103809;-51
2022/06/19 10:36:13;;;;;;;3.60;3.30;;;;;;;25.08;35.26;95427.63;6094926;28;105131;-50
2022/06/19 10:39:33;;;;;;;4.30;3.27;;;;;;;25.08;35.84;95431.09;6102154;28;103829;-50
2022/06/19 10:42:46;;;;;;;3.50;3.20;;;;;;;25.08;35.44;95427.63;6114531;28;103888;-50
2022/06/19 10:45:53;;;;;;;3.30;3.00;;;;;;;25.07;35.47;95426.06;6105539;28;103967;-50
2022/06/19 10:49:08;;;;;;;4.07;3.50;;;;;;;25.05;35.52;95423.69;6100583;28;103871;-50
2022/06/19 10:52:19;;;;;;;6.63;2.77;;;;;;;25.04;35.44;95424.00;6107883;28;105127;-51
2022/06/19 10:55:33;;;;;;;2.57;2.33;;;;;;;25.03;35.62;95430.44;6113943;28;103618;-50
2022/06/19 10:58:37;;;;;;;2.60;2.40;;;;;;;25.00;35.06;95433.75;6094930;28;103669;-51
2022/06/19 11:05:16;;;;;;;2.30;2.10;;;;;;;24.98;34.82;95418.00;6107179;28;104796;-51
2022/06/19 11:08:23;;;;;;;2.17;2.07;;;;;;;24.95;34.89;95426.66;6108980;28;103276;-51
2022/06/19 11:11:30;;;;;;;2.70;2.50;;;;;;;24.95;34.90;95413.28;6098021;28;103807;-51
2022/06/19 11:14:38;;;;;;;1.80;1.70;;;;;;;24.90;33.97;95410.78;6100643;28;104051;-54
2022/06/19 11:17:43;;;;;;;1.63;1.50;;;;;;;24.88;34.45;95415.66;6093238;28;104151;-54
2022/06/19 11:21:01;;;;;;;1.90;1.57;;;;;;;24.84;34.13;95400.50;6080496;28;106990;-54
2022/06/19 11:24:06;;;;;;;1.40;1.30;;;;;;;24.88;33.69;95396.91;6107573;28;104726;-54
2022/06/19 11:27:18;;;;;;;2.37;2.27;;;;;;;24.92;34.19;95402.41;6101526;28;104696;-54
2022/06/19 11:30:29;;;;;;;3.10;2.87;;;;;;;24.96;34.42;95393.44;6106326;28;103708;-50
2022/06/19 11:33:36;;;;;;;3.70;3.40;;;;;;;24.99;34.92;95386.66;6102948;28;105033;-51
2022/06/19 11:36:41;;;;;;;3.30;3.10;;;;;;;24.98;35.16;95385.88;6105033;28;105035;-50
2022/06/19 11:39:46;;;;;;;3.40;3.10;;;;;;;25.00;35.51;95388.22;6117897;28;103282;-50
2022/06/19 11:42:52;;;;;;;3.10;2.90;;;;;;;25.01;35.36;95379.09;6102425;28;104698;-50
2022/06/19 11:46:03;;;;;;;3.17;2.93;;;;;;;24.99;35.63;95384.75;6088210;28;105314;-50
2022/06/19 11:49:26;;;;;;;2.93;2.73;;;;;;;24.98;35.54;95377.06;6106156;28;104303;-50
2022/06/19 11:52:40;;;;;;;2.40;2.23;;;;;;;24.98;35.80;95372.47;6110967;28;104901;-50
2022/06/19 11:55:46;;;;;;;2.00;1.90;;;;;;;24.97;35.65;95373.59;6092028;28;103728;-50
2022/06/19 11:58:54;;;;;;;2.23;2.00;;;;;;;24.98;35.59;95364.44;6125416;28;103403;-51
2022/06/19 12:01:57;;;;;;;2.20;2.10;;;;;;;24.98;35.67;95356.41;6114843;28;104703;-52
2022/06/19 12:05:06;;;;;;;2.40;2.20;;;;;;;24.93;35.49;95364.63;6111187;28;103806;-55
2022/06/19 12:08:20;;;;;;;1.90;1.80;;;;;;;24.93;35.19;95356.59;6104627;28;104799;-50
2022/06/19 12:11:38;;;;;;;2.43;1.77;;;;;;;24.94;35.24;95358.16;6112111;28;104863;-50
2022/06/19 12:14:54;;;;;;;3.33;1.60;;;;;;;24.96;35.06;95355.94;6112922;28;103704;-51
2022/06/19 12:18:00;;;;;;;1.70;1.60;;;;;;;24.96;35.18;95363.97;6101846;28;104851;-51
2022/06/19 12:21:16;;;;;;;2.13;1.50;;;;;;;24.96;35.38;95352.50;6111210;28;105828;-52
2022/06/19 12:24:26;;;;;;;1.90;1.60;;;;;;;24.95;35.25;95354.38;6111837;28;103628;-50
2022/06/19 12:27:36;;;;;;;1.57;1.47;;;;;;;24.93;35.33;95353.91;6109705;28;104856;-50
2022/06/19 12:30:44;;;;;;;1.30;1.20;;;;;;;24.95;35.27;95354.38;6098866;28;104969;-50
2022/06/19 12:33:52;;;;;;;1.60;1.50;;;;;;;24.94;35.59;95358.16;6111874;28;103789;-50
2022/06/19 12:36:55;;;;;;;1.30;1.30;;;;;;;24.94;35.46;95350.13;6110845;28;104587;-51
2022/06/19 12:40:00;;;;;;;1.50;1.40;;;;;;;24.94;34.96;95334.06;6103008;28;103815;-50
2022/06/19 12:43:10;;;;;;;1.30;1.20;;;;;;;24.96;35.26;95342.56;6112319;28;104928;-51
2022/06/19 12:46:27;;;;;;;1.40;1.30;;;;;;;24.96;35.45;95328.38;6109504;28;104779;-50
2022/06/19 12:49:52;;;;;;;1.33;1.27;;;;;;;24.95;35.52;95340.19;6111342;28;103590;-50
2022/06/19 12:53:04;;;;;;;1.70;1.60;;;;;;;24.95;35.18;95332.97;6125655;28;103875;-50
2022/06/19 12:56:19;;;;;;;1.47;1.37;;;;;;;24.97;35.33;95329.97;6125386;28;103781;-50
2022/06/19 12:59:38;;;;;;;1.50;1.40;;;;;;;24.97;34.91;95330.75;6112277;28;103850;-50
2022/06/19 13:03:00;;;;;;;1.43;1.33;;;;;;;24.96;35.43;95323.03;6102759;28;104175;-49
2022/06/19 13:06:22;;;;;;;1.33;1.23;;;;;;;24.95;35.17;95327.59;6112060;28;103692;-50
2022/06/19 13:09:59;;;;;;;1.57;1.47;;;;;;;24.96;35.33;95329.19;6123728;28;103704;-50
2022/06/19 13:13:18;;;;;;;1.40;1.30;;;;;;;24.97;35.24;95325.38;6113021;28;103948;-50
2022/06/19 13:16:27;;;;;;;1.63;1.40;;;;;;;24.96;35.24;95317.69;6103302;28;103981;-50
2022/06/19 13:19:44;;;;;;;1.50;1.40;;;;;;;24.96;35.03;95318.47;6110132;28;103726;-50
2022/06/19 13:23:01;;;;;;;1.50;1.40;;;;;;;24.97;35.41;95313.91;6110630;28;103977;-51
2022/06/19 13:29:50;;;;;;;1.20;1.20;;;;;;;24.97;35.28;95301.28;6121105;28;103925;-50
2022/06/19 13:33:06;;;;;;;1.50;1.40;;;;;;;24.95;35.45;95295.47;6109862;28;103660;-51
2022/06/19 13:36:18;;;;;;;2.13;1.37;;;;;;;24.98;35.12;95289.47;6106654;28;103675;-51
2022/06/19 13:39:28;;;;;;;1.30;1.20;;;;;;;25.00;35.72;95286.47;6103270;28;103864;-50
2022/06/19 13:42:48;;;;;;;1.70;1.60;;;;;;;25.01;35.55;95288.06;6116371;28;103840;-51
2022/06/19 13:46:00;;;;;;;3.90;3.37;;;;;;;25.03;36.40;95281.31;6111440;28;104460;-51
2022/06/19 13:49:14;;;;;;;5.00;4.60;;;;;;;25.04;37.14;95276.72;6091196;28;103676;-50
2022/06/19 13:52:33;;;;;;;6.10;5.70;;;;;;;25.06;37.71;95287.91;6104357;28;103911;-50
2022/06/19 13:55:47;;;;;;;6.33;5.93;;;;;;;25.09;37.87;95285.38;6105525;28;103639;-51
2022/06/19 13:59:10;;;;;;;7.20;5.70;;;;;;;25.07;37.95;95284.91;6097363;28;103879;-51
2022/06/19 14:02:29;;;;;;;5.43;5.03;;;;;;;25.07;37.51;95282.22;6098744;28;103878;-50
2022/06/19 14:05:37;;;;;;;4.90;4.50;;;;;;;25.07;37.13;95282.22;6107750;28;103695;-54
2022/06/19 14:08:45;;;;;;;5.10;4.60;;;;;;;25.06;37.51;95271.84;6102530;28;103550;-55
2022/06/19 14:12:06;;;;;;;4.60;4.30;;;;;;;25.06;37.16;95280.66;6085011;28;104513;-54
2022/06/19 14:15:22;;;;;;;3.60;3.40;;;;;;;25.03;36.17;95273.25;6082417;28;103878;-55
2022/06/19 14:18:36;;;;;;;2.80;2.60;;;;;;;25.02;36.11;95269.00;6083695;28;104534;-55
2022/06/19 14:22:06;;;;;;;2.70;2.50;;;;;;;25.03;35.87;95264.41;6104941;28;103931;-55
2022/06/19 14:25:18;;;;;;;2.63;2.43;;;;;;;25.03;35.69;95261.75;6095634;28;103620;-56
2022/06/19 14:28:27;;;;;;;3.33;2.40;;;;;;;25.04;35.46;95257.97;6112081;28;103990;-54
2022/06/19 14:31:31;;;;;;;14.53;2.77;;;;;;;25.04;35.81;95247.28;6115878;28;103998;-54
2022/06/19 14:34:50;;;;;;;2.10;2.00;;;;;;;25.05;35.88;95254.19;6104200;28;103944;-55
2022/06/19 14:38:12;;;;;;;2.20;2.10;;;;;;;25.03;35.44;95243.00;6119264;28;105110;-55
2022/06/19 14:41:28;;;;;;;1.90;1.80;;;;;;;25.02;35.58;95242.22;6105697;28;104054;-54
2022/06/19 14:44:32;;;;;;;2.30;2.20;;;;;;;25.02;35.99;95246.78;6105117;28;107272;-55